createdAt,value
2024-01-20T00:02:20.835Z,101479.00
2024-01-20T00:04:47.985Z,101478.13
2024-01-20T00:07:14.959Z,101477.22
2024-01-20T00:09:49.828Z,101495.19
2024-01-20T00:12:18.236Z,101500.19
2024-01-20T00:14:45.375Z,101495.00
2024-01-20T00:17:21.234Z,101498.44
2024-01-20T00:19:54.376Z,101501.91
2024-01-20T00:22:23.691Z,101493.03
2024-01-20T00:24:51.261Z,101500.16
2024-01-20T00:27:19.233Z,101496.69
2024-01-20T00:29:47.278Z,101505.34
2024-01-20T00:32:16.426Z,101480.19
2024-01-20T00:34:55.393Z,101489.13
2024-01-20T00:37:30.801Z,101495.13
2024-01-20T00:39:58.084Z,101501.09
2024-01-20T00:42:24.968Z,101501.91
2024-01-20T00:44:51.856Z,101508.75
2024-01-20T00:47:18.814Z,101500.94
2024-01-20T00:49:45.822Z,101512.16
2024-01-20T00:52:12.743Z,101513.84
2024-01-20T00:54:39.715Z,101519.91
2024-01-20T00:57:06.686Z,101511.34
2024-01-20T00:59:33.585Z,101528.53
2024-01-20T01:02:00.491Z,101526.88
2024-01-20T01:04:27.447Z,101528.63
2024-01-20T01:06:54.323Z,101531.13
2024-01-20T01:09:21.254Z,101540.56
2024-01-20T01:11:48.172Z,101529.28
2024-01-20T01:14:15.241Z,101529.38
2024-01-20T01:16:42.307Z,101536.28
2024-01-20T01:19:09.240Z,101540.63
2024-01-20T01:21:36.158Z,101541.44
2024-01-20T01:24:03.131Z,101544.09
2024-01-20T01:26:32.092Z,101537.19
2024-01-20T01:29:00.310Z,101537.97
2024-01-20T01:31:27.566Z,101537.94
2024-01-20T01:33:54.553Z,101548.25
2024-01-20T01:36:21.580Z,101550.81
2024-01-20T01:38:48.507Z,101543.97
2024-01-20T01:41:15.525Z,101556.84
2024-01-20T01:43:42.533Z,101549.03
2024-01-20T01:46:10.013Z,101554.19
2024-01-20T01:48:37.488Z,101551.59
2024-01-20T01:51:05.479Z,101549.91
2024-01-20T01:53:36.061Z,101548.06
2024-01-20T01:56:03.298Z,101555.22
2024-01-20T01:58:30.314Z,101562.13
2024-01-20T02:00:57.530Z,101556.22
2024-01-20T02:03:25.172Z,101567.41
2024-01-20T02:05:52.933Z,101567.41
2024-01-20T02:08:21.170Z,101575.16
2024-01-20T02:10:48.764Z,101580.38
2024-01-20T02:13:16.659Z,101569.19
2024-01-20T02:15:44.036Z,101590.59
2024-01-20T02:18:11.285Z,101582.97
2024-01-20T02:20:38.332Z,101583.78
2024-01-20T02:23:05.305Z,101589.94
2024-01-20T02:25:32.321Z,101583.09
2024-01-20T02:27:59.492Z,101593.34
2024-01-20T02:30:26.631Z,101587.44
2024-01-20T02:32:53.835Z,101601.22
2024-01-20T02:35:21.564Z,101595.09
2024-01-20T02:37:48.686Z,101598.69
2024-01-20T02:40:15.681Z,101597.88
2024-01-20T02:42:42.595Z,101604.75
2024-01-20T02:45:09.766Z,101597.94
2024-01-20T02:47:36.798Z,101600.50
2024-01-20T02:50:03.942Z,101595.38
2024-01-20T02:52:30.964Z,101588.19
2024-01-20T02:54:57.947Z,101599.72
2024-01-20T02:57:25.448Z,101599.72
2024-01-20T02:59:52.511Z,101602.34
2024-01-20T03:02:19.541Z,101610.09
2024-01-20T03:04:46.455Z,101611.88
2024-01-20T03:07:15.308Z,101605.88
2024-01-20T03:09:42.308Z,101593.00
2024-01-20T03:12:09.383Z,101593.59
2024-01-20T03:14:36.626Z,101582.75
2024-01-20T03:17:03.548Z,101585.25
2024-01-20T03:19:30.622Z,101586.13
2024-01-20T03:21:57.606Z,101571.50
2024-01-20T03:24:24.863Z,101588.78
2024-01-20T03:26:52.163Z,101587.91
2024-01-20T03:29:19.258Z,101583.63
2024-01-20T03:31:46.217Z,101597.41
2024-01-20T03:34:13.470Z,101601.75
2024-01-20T03:36:40.549Z,101594.03
2024-01-20T03:39:07.576Z,101591.44
2024-01-20T03:41:34.544Z,101600.94
2024-01-20T03:44:01.500Z,101612.13
2024-01-20T03:46:28.399Z,101611.25
2024-01-20T03:48:55.479Z,101616.50
2024-01-20T03:51:27.643Z,101617.38
2024-01-20T03:53:55.360Z,101612.94
2024-01-20T03:56:22.291Z,101628.56
2024-01-20T03:58:49.631Z,101624.22
2024-01-20T04:01:16.586Z,101630.16
2024-01-20T04:03:44.763Z,101625.50
2024-01-20T04:06:11.738Z,101639.47
2024-01-20T04:08:38.806Z,101638.66
2024-01-20T04:11:06.301Z,101632.63
2024-01-20T04:13:33.280Z,101628.34
2024-01-20T04:16:00.183Z,101635.19
2024-01-20T04:18:27.263Z,101626.63
2024-01-20T04:20:54.333Z,101639.59
2024-01-20T04:23:21.256Z,101637.84
2024-01-20T04:25:48.616Z,101624.75
2024-01-20T04:28:15.645Z,101628.88
2024-01-20T04:30:42.643Z,101642.84
2024-01-20T04:33:09.781Z,101635.06
2024-01-20T04:35:36.823Z,101637.66
2024-01-20T04:38:03.832Z,101634.09
2024-01-20T04:40:30.721Z,101639.34
2024-01-20T04:42:57.632Z,101635.81
2024-01-20T04:45:24.584Z,101641.84
2024-01-20T04:47:51.616Z,101634.94
2024-01-20T04:50:18.581Z,101647.81
2024-01-20T04:52:45.514Z,101640.84
2024-01-20T04:55:12.470Z,101651.94
2024-01-20T04:57:39.424Z,101645.91
2024-01-20T05:00:07.754Z,101656.22
2024-01-20T05:02:36.896Z,101659.53
2024-01-20T05:05:04.726Z,101662.13
2024-01-20T05:07:31.879Z,101650.63
2024-01-20T05:09:58.879Z,101661.16
2024-01-20T05:12:26.663Z,101660.19
2024-01-20T05:14:54.406Z,101659.47
2024-01-20T05:17:21.422Z,101654.31
2024-01-20T05:19:48.645Z,101655.22
2024-01-20T05:22:18.351Z,101658.72
2024-01-20T05:24:45.792Z,101661.38
2024-01-20T05:27:12.980Z,101664.84
2024-01-20T05:29:39.915Z,101661.16
2024-01-20T05:32:06.815Z,101664.97
2024-01-20T05:34:33.845Z,101668.44
2024-01-20T05:37:00.861Z,101662.38
2024-01-20T05:39:27.921Z,101661.59
2024-01-20T05:41:55.031Z,101667.72
2024-01-20T05:44:22.016Z,101665.19
2024-01-20T05:46:48.913Z,101666.97
2024-01-20T05:49:16.021Z,101667.88
2024-01-20T05:51:43.028Z,101683.44
2024-01-20T05:54:10.060Z,101679.09
2024-01-20T05:56:37.021Z,101682.56
2024-01-20T05:59:04.113Z,101678.19
2024-01-20T06:01:31.363Z,101688.50
2024-01-20T06:03:58.603Z,101689.34
2024-01-20T06:06:25.621Z,101693.53
2024-01-20T06:08:52.632Z,101684.94
2024-01-20T06:11:19.620Z,101688.34
2024-01-20T06:13:46.640Z,101691.78
2024-01-20T06:16:14.157Z,101695.25
2024-01-20T06:18:41.138Z,101697.81
2024-01-20T06:21:09.353Z,101697.00
2024-01-20T06:23:36.722Z,101703.06
2024-01-20T06:26:04.215Z,101700.47
2024-01-20T06:28:31.142Z,101715.03
2024-01-20T06:30:58.085Z,101710.72
2024-01-20T06:33:25.298Z,101711.66
2024-01-20T06:35:52.396Z,101706.56
2024-01-20T06:38:19.326Z,101717.78
2024-01-20T06:40:46.286Z,101715.22
2024-01-20T06:43:13.185Z,101724.59
2024-01-20T06:45:40.869Z,101729.75
2024-01-20T06:48:09.020Z,101729.75
2024-01-20T06:50:40.882Z,101715.72
2024-01-20T06:53:07.797Z,101730.69
2024-01-20T06:55:34.827Z,101727.00
2024-01-20T06:58:01.725Z,101731.56
2024-01-20T07:00:28.730Z,101732.34
2024-01-20T07:02:55.847Z,101747.69
2024-01-20T07:05:22.888Z,101742.59
2024-01-20T07:07:49.815Z,101742.59
2024-01-20T07:10:16.812Z,101743.47
2024-01-20T07:12:43.784Z,101737.38
2024-01-20T07:15:11.278Z,101752.84
2024-01-20T07:17:38.285Z,101759.69
2024-01-20T07:20:05.867Z,101766.59
2024-01-20T07:22:32.929Z,101764.72
2024-01-20T07:24:59.854Z,101762.34
2024-01-20T07:27:26.834Z,101769.25
2024-01-20T07:29:53.807Z,101768.44
2024-01-20T07:32:20.844Z,101760.66
2024-01-20T07:34:47.891Z,101771.03
2024-01-20T07:37:16.428Z,101759.03
2024-01-20T07:39:44.028Z,101754.53
2024-01-20T07:42:11.611Z,101760.88
2024-01-20T07:44:38.608Z,101761.81
2024-01-20T07:47:05.586Z,101756.66
2024-01-20T07:49:32.606Z,101774.00
2024-01-20T07:51:59.591Z,101770.66
2024-01-20T07:54:26.525Z,101774.19
2024-01-20T07:56:53.423Z,101784.66
2024-01-20T07:59:20.351Z,101787.97
2024-01-20T08:01:47.510Z,101796.88
2024-01-20T08:04:15.371Z,101801.88
2024-01-20T08:06:42.322Z,101805.47
2024-01-20T08:09:11.476Z,101803.81
2024-01-20T08:11:38.381Z,101807.19
2024-01-20T08:14:05.358Z,101815.06
2024-01-20T08:16:32.248Z,101821.13
2024-01-20T08:18:59.347Z,101822.00
2024-01-20T08:21:26.424Z,101818.69
2024-01-20T08:23:53.335Z,101818.47
2024-01-20T08:26:20.301Z,101835.16
2024-01-20T08:28:47.286Z,101837.00
2024-01-20T08:31:14.346Z,101842.38
2024-01-20T08:33:43.375Z,101838.19
2024-01-20T08:36:10.633Z,101839.16
2024-01-20T08:38:37.812Z,101847.84
2024-01-20T08:41:11.564Z,101847.69
2024-01-20T08:43:43.419Z,101842.63
2024-01-20T08:46:13.585Z,101865.00
2024-01-20T08:48:41.436Z,101863.69
2024-01-20T08:51:08.478Z,101859.53
2024-01-20T08:53:35.401Z,101863.16
2024-01-20T08:56:02.901Z,101876.25
2024-01-20T08:58:31.077Z,101868.69
2024-01-20T09:00:58.168Z,101872.28
2024-01-20T09:03:25.300Z,101864.66
2024-01-20T09:05:52.545Z,101871.75
2024-01-20T09:08:19.996Z,101874.38
2024-01-20T09:10:46.926Z,101871.13
2024-01-20T09:13:13.914Z,101871.34
2024-01-20T09:15:41.161Z,101879.22
2024-01-20T09:18:08.965Z,101885.34
2024-01-20T09:20:36.419Z,101892.34
2024-01-20T09:23:04.335Z,101898.59
2024-01-20T09:25:31.258Z,101893.53
2024-01-20T09:27:58.167Z,101897.94
2024-01-20T09:30:25.084Z,101893.66
2024-01-20T09:32:52.137Z,101874.13
2024-01-20T09:35:19.139Z,101895.06
2024-01-20T09:37:46.037Z,101885.47
2024-01-20T09:40:13.258Z,101905.19
2024-01-20T09:42:40.861Z,101898.13
2024-01-20T09:45:08.359Z,101903.94
2024-01-20T09:47:36.478Z,101902.25
2024-01-20T09:50:07.344Z,101901.66
2024-01-20T09:52:52.452Z,101915.69
2024-01-20T09:55:22.873Z,101915.06
2024-01-20T09:57:51.408Z,101913.56
2024-01-20T10:00:22.030Z,101929.28
2024-01-20T10:02:49.763Z,101922.53
2024-01-20T10:05:17.281Z,101914.75
2024-01-20T10:07:44.642Z,101928.13
2024-01-20T10:10:21.227Z,101919.75
2024-01-20T10:12:55.609Z,101928.53
2024-01-20T10:15:27.096Z,101939.13
2024-01-20T10:17:56.283Z,101936.63
2024-01-20T10:20:32.538Z,101937.44
2024-01-20T10:23:03.402Z,101943.56
2024-01-20T10:25:30.609Z,101941.94
2024-01-20T10:27:57.671Z,101941.84
2024-01-20T10:30:26.135Z,101961.56
2024-01-20T10:33:04.288Z,101960.69
2024-01-20T10:35:36.747Z,101962.31
2024-01-20T10:38:10.150Z,101963.88
2024-01-20T10:40:41.591Z,101955.06
2024-01-20T10:43:15.769Z,101972.19
2024-01-20T10:45:51.780Z,101958.44
2024-01-20T10:48:28.735Z,101949.94
2024-01-20T10:51:01.370Z,101947.50
2024-01-20T10:53:28.800Z,101949.34
2024-01-20T10:55:56.237Z,101955.47
2024-01-20T10:58:34.317Z,101974.56
2024-01-20T11:01:01.597Z,101972.13
2024-01-20T11:03:29.253Z,101967.06
2024-01-20T11:05:56.749Z,101970.69
2024-01-20T11:08:26.113Z,101976.00
2024-01-20T11:10:54.906Z,101968.91
2024-01-20T11:13:27.539Z,101981.28
2024-01-20T11:15:56.321Z,101979.75
2024-01-20T11:18:24.400Z,101964.91
2024-01-20T11:20:57.305Z,101973.81
2024-01-20T11:23:24.375Z,101962.66
2024-01-20T11:25:51.466Z,101975.53
2024-01-20T11:28:32.820Z,101971.16
2024-01-20T11:31:04.232Z,101988.50
2024-01-20T11:33:32.190Z,101964.28
2024-01-20T11:36:01.655Z,101974.06
2024-01-20T11:38:29.938Z,101977.50
2024-01-20T11:41:01.315Z,101978.28
2024-01-20T11:43:28.763Z,101989.38
2024-01-20T11:45:57.739Z,101988.72
2024-01-20T11:48:26.012Z,101976.41
2024-01-20T11:50:53.128Z,101993.06
2024-01-20T11:53:21.722Z,101993.13
2024-01-20T11:55:56.922Z,101994.03
2024-01-20T11:58:23.959Z,101988.06
2024-01-20T12:00:55.667Z,102001.06
2024-01-20T12:03:23.326Z,102009.56
2024-01-20T12:05:51.171Z,101993.00
2024-01-20T12:08:18.776Z,101999.06
2024-01-20T12:10:50.322Z,102004.50
2024-01-20T12:13:18.200Z,102008.94
2024-01-20T12:15:49.052Z,102008.13
2024-01-20T12:18:18.450Z,102004.81
2024-01-20T12:20:45.786Z,102000.63
2024-01-20T12:23:23.565Z,101998.88
2024-01-20T12:25:54.720Z,102017.31
2024-01-20T12:28:22.694Z,102016.47
2024-01-20T12:30:50.242Z,102016.34
2024-01-20T12:33:17.457Z,102016.44
2024-01-20T12:35:44.634Z,102019.16
2024-01-20T12:38:11.559Z,102026.03
2024-01-20T12:40:38.472Z,102030.31
2024-01-20T12:43:05.474Z,102031.13
2024-01-20T12:45:32.452Z,102033.78
2024-01-20T12:47:59.564Z,102027.78
2024-01-20T12:50:26.548Z,102038.97
2024-01-20T12:52:53.558Z,102048.44
2024-01-20T12:55:20.498Z,102051.00
2024-01-20T12:57:47.932Z,102049.34
2024-01-20T13:00:15.551Z,102058.78
2024-01-20T13:02:42.533Z,102065.84
2024-01-20T13:05:09.907Z,102076.25
2024-01-20T13:07:36.892Z,102068.63
2024-01-20T13:10:04.505Z,102075.75
2024-01-20T13:12:32.554Z,102073.25
2024-01-20T13:14:59.730Z,102075.16
2024-01-20T13:17:26.718Z,102072.63
2024-01-20T13:19:53.795Z,102066.56
2024-01-20T13:22:20.790Z,102076.91
2024-01-20T13:24:47.727Z,102078.63
2024-01-20T13:27:14.732Z,102080.38
2024-01-20T13:29:41.713Z,102089.09
2024-01-20T13:32:08.669Z,102095.38
2024-01-20T13:34:35.825Z,102092.84
2024-01-20T13:37:03.606Z,102100.41
2024-01-20T13:39:30.537Z,102108.31
2024-01-20T13:41:57.465Z,102104.84
2024-01-20T13:44:24.368Z,102102.03
2024-01-20T13:46:51.309Z,102107.44
2024-01-20T13:49:18.308Z,102106.59
2024-01-20T13:51:45.360Z,102106.59
2024-01-20T13:54:12.290Z,102104.97
2024-01-20T13:56:39.204Z,102114.44
2024-01-20T13:59:06.410Z,102110.13
2024-01-20T14:01:33.341Z,102105.78
2024-01-20T14:04:01.453Z,102117.03
2024-01-20T14:06:28.806Z,102120.38
2024-01-20T14:08:55.734Z,102127.16
2024-01-20T14:11:24.740Z,102129.69
2024-01-20T14:13:51.687Z,102132.22
2024-01-20T14:16:18.918Z,102133.94
2024-01-20T14:18:45.941Z,102142.47
2024-01-20T14:21:13.163Z,102139.91
2024-01-20T14:23:40.299Z,102146.69
2024-01-20T14:26:07.190Z,102155.38
2024-01-20T14:28:34.103Z,102157.00
2024-01-20T14:31:01.048Z,102166.59
2024-01-20T14:33:28.047Z,102162.22
2024-01-20T14:35:54.978Z,102170.81
2024-01-20T14:38:21.944Z,102174.28
2024-01-20T14:40:48.880Z,102175.13
2024-01-20T14:43:15.791Z,102179.41
2024-01-20T14:45:42.769Z,102180.28
2024-01-20T14:48:09.960Z,102181.16
2024-01-20T14:50:36.979Z,102191.50
2024-01-20T14:53:04.084Z,102196.69
2024-01-20T14:55:31.989Z,102190.56
2024-01-20T14:57:59.284Z,102199.94
2024-01-20T15:00:26.325Z,102205.28
2024-01-20T15:02:53.377Z,102206.06
2024-01-20T15:05:20.379Z,102210.38
2024-01-20T15:07:47.285Z,102207.88
2024-01-20T15:10:14.228Z,102207.78
2024-01-20T15:12:41.324Z,102210.28
2024-01-20T15:15:08.661Z,102218.75
2024-01-20T15:17:35.633Z,102222.97
2024-01-20T15:20:04.878Z,102224.59
2024-01-20T15:22:31.812Z,102227.03
2024-01-20T15:24:58.762Z,102244.09
2024-01-20T15:27:25.893Z,102245.56
2024-01-20T15:29:52.848Z,102252.47
2024-01-20T15:32:19.744Z,102258.31
2024-01-20T15:34:46.691Z,102258.22
2024-01-20T15:37:13.623Z,102256.38
2024-01-20T15:39:40.576Z,102256.25
2024-01-20T15:42:07.567Z,102260.47
2024-01-20T15:44:34.481Z,102257.69
2024-01-20T15:47:01.401Z,102263.59
2024-01-20T15:49:28.427Z,102268.59
2024-01-20T15:51:55.400Z,102267.66
2024-01-20T15:54:22.425Z,102267.66
2024-01-20T15:56:49.431Z,102269.28
2024-01-20T15:59:17.653Z,102271.78
2024-01-20T16:01:44.910Z,102271.78
2024-01-20T16:04:12.055Z,102264.84
2024-01-20T16:06:40.030Z,102283.00
2024-01-20T16:09:07.561Z,102277.84
2024-01-20T16:11:34.487Z,102286.41
2024-01-20T16:14:01.407Z,102284.72
2024-01-20T16:16:28.309Z,102287.38
2024-01-20T16:18:55.851Z,102283.19
2024-01-20T16:21:24.855Z,102288.34
2024-01-20T16:23:52.617Z,102291.00
2024-01-20T16:26:23.086Z,102299.63
2024-01-20T16:28:50.262Z,102307.56
2024-01-20T16:31:17.651Z,102317.81
2024-01-20T16:33:45.843Z,102309.22
2024-01-20T16:36:19.807Z,102304.88
2024-01-20T16:38:47.111Z,102302.41
2024-01-20T16:41:14.305Z,102312.72
2024-01-20T16:43:41.223Z,102297.72
2024-01-20T16:46:08.182Z,102321.28
2024-01-20T16:48:35.252Z,102322.16
2024-01-20T16:51:10.373Z,102321.44
2024-01-20T16:53:42.134Z,102329.19
2024-01-20T16:56:09.355Z,102331.78
2024-01-20T16:58:37.598Z,102335.28
2024-01-20T17:01:04.722Z,102332.50
2024-01-20T17:03:31.763Z,102342.19
2024-01-20T17:05:59.164Z,102339.06
2024-01-20T17:08:26.101Z,102338.09
2024-01-20T17:10:53.023Z,102344.09
2024-01-20T17:13:19.928Z,102348.38
2024-01-20T17:15:46.875Z,102351.94
2024-01-20T17:18:14.217Z,102352.81
2024-01-20T17:20:41.234Z,102352.88
2024-01-20T17:23:08.199Z,102355.53
2024-01-20T17:25:35.157Z,102359.09
2024-01-20T17:28:02.063Z,102354.06
2024-01-20T17:30:29.016Z,102361.09
2024-01-20T17:32:55.980Z,102366.25
2024-01-20T17:35:22.905Z,102359.31
2024-01-20T17:37:49.822Z,102368.84
2024-01-20T17:40:16.911Z,102373.97
2024-01-20T17:42:44.894Z,102385.19
2024-01-20T17:45:12.128Z,102386.06
2024-01-20T17:47:40.751Z,102393.84
2024-01-20T17:50:08.473Z,102395.59
2024-01-20T17:52:35.399Z,102401.69
2024-01-20T17:55:02.425Z,102407.78
2024-01-20T17:57:29.428Z,102409.63
2024-01-20T17:59:56.763Z,102406.25
2024-01-20T18:02:23.909Z,102408.91
2024-01-20T18:04:51.067Z,102406.25
2024-01-20T18:07:18.439Z,102410.56
2024-01-20T18:09:45.396Z,102420.00
2024-01-20T18:12:12.830Z,102420.72
2024-01-20T18:14:40.498Z,102415.50
2024-01-20T18:17:09.596Z,102422.19
2024-01-20T18:19:36.563Z,102426.44
2024-01-20T18:22:03.602Z,102428.94
2024-01-20T18:24:30.569Z,102431.50
2024-01-20T18:26:57.566Z,102438.44
2024-01-20T18:29:24.487Z,102442.75
2024-01-20T18:31:51.683Z,102435.81
2024-01-20T18:34:18.649Z,102439.19
2024-01-20T18:36:45.659Z,102444.34
2024-01-20T18:39:12.614Z,102435.63
2024-01-20T18:41:39.566Z,102444.13
2024-01-20T18:44:06.523Z,102441.38
2024-01-20T18:46:33.428Z,102449.94
2024-01-20T18:49:00.454Z,102452.28
2024-01-20T18:51:27.552Z,102455.59
2024-01-20T18:53:55.340Z,102460.66
2024-01-20T18:56:22.213Z,102470.84
2024-01-20T18:58:49.117Z,102457.78
2024-01-20T19:01:16.181Z,102458.50
2024-01-20T19:03:43.312Z,102467.78
2024-01-20T19:06:10.301Z,102464.25
2024-01-20T19:08:38.694Z,102481.44
2024-01-20T19:11:08.405Z,102481.38
2024-01-20T19:13:35.373Z,102481.38
2024-01-20T19:16:03.215Z,102467.22
2024-01-20T19:18:30.509Z,102480.09
2024-01-20T19:20:57.524Z,102481.03
2024-01-20T19:23:24.479Z,102482.69
2024-01-20T19:25:53.343Z,102486.03
2024-01-20T19:28:20.309Z,102485.88
2024-01-20T19:30:47.289Z,102495.16
2024-01-20T19:33:14.349Z,102492.25
2024-01-20T19:35:41.358Z,102498.16
2024-01-20T19:38:08.264Z,102498.88
2024-01-20T19:40:35.299Z,102497.91
2024-01-20T19:43:02.208Z,102500.31
2024-01-20T19:45:29.267Z,102504.50
2024-01-20T19:47:56.287Z,102502.59
2024-01-20T19:50:23.252Z,102511.13
2024-01-20T19:52:50.154Z,102507.56
2024-01-20T19:55:17.458Z,102516.91
2024-01-20T19:57:44.418Z,102514.31
2024-01-20T20:00:12.063Z,102518.53
2024-01-20T20:02:41.911Z,102523.72
2024-01-20T20:05:08.911Z,102514.16
2024-01-20T20:07:35.851Z,102515.16
2024-01-20T20:10:02.874Z,102517.81
2024-01-20T20:12:30.610Z,102519.50
2024-01-20T20:14:57.771Z,102528.22
2024-01-20T20:17:25.002Z,102524.84
2024-01-20T20:19:52.036Z,102531.69
2024-01-20T20:22:19.026Z,102534.28
2024-01-20T20:24:46.396Z,102533.38
2024-01-20T20:27:13.610Z,102534.09
2024-01-20T20:29:40.617Z,102537.50
2024-01-20T20:32:07.604Z,102532.25
2024-01-20T20:34:34.683Z,102536.53
2024-01-20T20:37:01.720Z,102529.50
2024-01-20T20:39:28.792Z,102525.16
2024-01-20T20:41:55.788Z,102540.56
2024-01-20T20:44:22.727Z,102537.88
2024-01-20T20:46:49.670Z,102536.81
2024-01-20T20:49:16.706Z,102543.69
2024-01-20T20:51:43.873Z,102539.84
2024-01-20T20:54:11.648Z,102538.44
2024-01-20T20:56:38.613Z,102528.81
2024-01-20T20:59:05.523Z,102540.84
2024-01-20T21:01:32.887Z,102543.31
2024-01-20T21:04:04.138Z,102539.84
2024-01-20T21:06:33.077Z,102545.84
2024-01-20T21:09:00.330Z,102542.91
2024-01-20T21:11:27.226Z,102553.38
2024-01-20T21:13:54.146Z,102555.91
2024-01-20T21:16:21.032Z,102554.09
2024-01-20T21:18:48.174Z,102554.81
2024-01-20T21:21:15.263Z,102552.06
2024-01-20T21:23:42.231Z,102553.66
2024-01-20T21:26:09.789Z,102550.03
2024-01-20T21:28:36.731Z,102552.44
2024-01-20T21:31:04.313Z,102540.97
2024-01-20T21:33:31.412Z,102545.16
2024-01-20T21:35:58.485Z,102542.56
2024-01-20T21:38:25.672Z,102525.94
2024-01-20T21:40:52.602Z,102537.84
2024-01-20T21:43:19.516Z,102539.38
2024-01-20T21:45:46.596Z,102529.66
2024-01-20T21:48:14.895Z,102519.53
2024-01-20T21:50:43.424Z,102533.41
2024-01-20T21:53:10.398Z,102534.81
2024-01-20T21:55:37.340Z,102537.06
2024-01-20T21:58:04.482Z,102535.00
2024-01-20T22:00:31.596Z,102542.38
2024-01-20T22:02:58.706Z,102539.41
2024-01-20T22:05:25.709Z,102543.41
2024-01-20T22:07:54.803Z,102538.78
2024-01-20T22:10:21.816Z,102532.38
2024-01-20T22:12:48.859Z,102531.19
2024-01-20T22:15:15.971Z,102530.84
2024-01-20T22:17:42.952Z,102525.41
2024-01-20T22:20:10.638Z,102535.41
2024-01-20T22:22:37.546Z,102530.78
2024-01-20T22:25:04.629Z,102535.66
2024-01-20T22:27:31.562Z,102530.22
2024-01-20T22:29:58.579Z,102533.31
2024-01-20T22:32:25.466Z,102523.63
2024-01-20T22:34:52.452Z,102526.69
2024-01-20T22:37:19.466Z,102535.81
2024-01-20T22:39:46.435Z,102528.56
2024-01-20T22:42:13.421Z,102530.84
2024-01-20T22:44:40.317Z,102533.94
2024-01-20T22:47:07.237Z,102532.78
2024-01-20T22:49:34.499Z,102534.25
2024-01-20T22:52:01.564Z,102542.66
2024-01-20T22:54:29.160Z,102529.53
2024-01-20T22:56:56.257Z,102520.63
2024-01-20T22:59:23.192Z,102523.59
2024-01-20T23:01:50.183Z,102526.25
2024-01-20T23:04:17.269Z,102529.44
2024-01-20T23:06:46.668Z,102529.81
2024-01-20T23:09:13.732Z,102526.13
2024-01-20T23:11:40.625Z,102513.00
2024-01-20T23:14:07.517Z,102520.50
2024-01-20T23:16:34.442Z,102526.34
2024-01-20T23:19:01.483Z,102518.44
2024-01-20T23:21:28.438Z,102530.22
2024-01-20T23:23:55.470Z,102517.13
2024-01-20T23:26:22.514Z,102520.31
2024-01-20T23:28:49.438Z,102523.56
2024-01-20T23:31:16.746Z,102512.16
2024-01-20T23:33:43.727Z,102516.13
2024-01-20T23:36:12.157Z,102506.53
2024-01-20T23:38:39.085Z,102498.22
2024-01-20T23:41:05.975Z,102511.16
2024-01-20T23:43:32.889Z,102504.13
2024-01-20T23:46:00.264Z,102498.91
2024-01-20T23:48:27.173Z,102499.69
2024-01-20T23:50:54.324Z,102499.59
2024-01-20T23:53:21.239Z,102503.75
2024-01-20T23:55:48.147Z,102505.31
2024-01-20T23:58:15.085Z,102506.00
